Etusivu
METAR-TAF:

METAR-TAF

Lentoasemat :

Mendoza, Argentiina

Leveyspiiri: 32-50S, Pituuspiiri: 068-47W, korkeus merenpinnasta: 705 m

Tämänhetkinen sää

Tämä raportti tehtiin 13 minuuttia sitten, kello 05.00 UTC
tyyntä
Lämpötila 9°C
Kosteus 76%
Ilmanpaine 1019 hPa
Näkyvyys 10 km tai enemmän
ei pilviä alle 1500 m:ssä eikä cumulonimbus-pilviä

METAR: SAME 270500Z 00000KT CAVOK 09/05 Q1019

Aika: 02:13 (05:13 UTC)

Sääennuste

Tämä raportti tehtiin 6 tuntia ja 13 minuuttia sitten, kello 23.00 UTC
Ennuste voimassa 27. päivästä klo 00 UTC - 27. päivään klo 24 UTC
Tuuli 5 kn pohjoisesta
Näkyvyys 10 km tai enemmän
ei pilviä alle 1500 m:ssä eikä cumulonimbus-pilviä

TAF: SAME 262300Z 2700/2724 36005KT CAVOK TN06/2710Z TX21/2720Z

Säähavainnot ja -ennusteet yli 4000 lentoasemalta (METAR- ja TAF-raportit).

Käytössä olevat sääasemat on merkitty karttaan keltaisilla ja punaisilla pisteillä.

Aseta hiiri pisteen päälle nähdäksesi sääaseman nimen.

Klikkaa sitten nähdäksesi säähavainnot ja -ennusteet.

Kartan vaihtaminen: klikkaa mustalla rastilla varustettuja vihreitä pisteitä, niin voit zoomata sisään; viivalla varustettua vihreää pistettä, niin voit zoomata ulos tai vihreitä nuolia, niin pääset viereisille kartoille.


METAR-TAF: